createdAt,value
2023-04-14T00:02:43.614Z,19.14
2023-04-14T00:08:05.721Z,19.11
2023-04-14T00:13:27.670Z,19.08
2023-04-14T00:18:49.808Z,19.07
2023-04-14T00:24:11.617Z,19.05
2023-04-14T00:29:33.510Z,19.03
2023-04-14T00:34:57.245Z,19.01
2023-04-14T00:40:19.251Z,18.99
2023-04-14T00:45:46.213Z,18.99
2023-04-14T00:51:09.437Z,18.96
2023-04-14T00:56:31.938Z,18.94
2023-04-14T01:01:54.257Z,18.93
2023-04-14T01:07:16.165Z,18.90
2023-04-14T01:13:06.564Z,18.90
2023-04-14T01:18:35.105Z,18.88
2023-04-14T01:24:23.505Z,18.87
2023-04-14T01:30:11.336Z,18.84
2023-04-14T01:35:45.612Z,18.83
2023-04-14T01:41:09.848Z,18.81
2023-04-14T01:46:34.546Z,18.79
2023-04-14T01:51:57.142Z,18.77
2023-04-14T01:57:23.171Z,18.75
2023-04-14T02:02:48.469Z,18.75
2023-04-14T02:08:13.471Z,18.74
2023-04-14T02:13:36.284Z,18.71
2023-04-14T02:18:59.683Z,18.71
2023-04-14T02:24:25.318Z,18.70
2023-04-14T02:29:53.850Z,18.70
2023-04-14T02:35:19.108Z,18.68
2023-04-14T02:40:42.687Z,18.65
2023-04-14T02:46:06.717Z,18.65
2023-04-14T02:51:29.795Z,18.63
2023-04-14T02:56:52.405Z,18.63
2023-04-14T03:02:16.495Z,18.61
2023-04-14T03:07:39.395Z,18.59
2023-04-14T03:13:03.882Z,18.57
2023-04-14T03:18:27.353Z,18.56
2023-04-14T03:23:53.118Z,18.56
2023-04-14T03:29:16.780Z,18.54
2023-04-14T03:34:43.260Z,18.52
2023-04-14T03:40:08.248Z,18.51
2023-04-14T03:45:30.190Z,18.49
2023-04-14T03:50:55.289Z,18.48
2023-04-14T03:56:18.077Z,18.47
2023-04-14T04:01:41.796Z,18.44
2023-04-14T04:07:05.224Z,18.44
2023-04-14T04:12:28.394Z,18.42
2023-04-14T04:17:51.727Z,18.41
2023-04-14T04:23:17.338Z,18.39
2023-04-14T04:28:40.693Z,18.34
2023-04-14T04:34:04.261Z,18.35
2023-04-14T04:39:26.534Z,18.33
2023-04-14T04:44:48.348Z,18.32
2023-04-14T04:50:11.101Z,18.31
2023-04-14T04:55:33.000Z,18.29
2023-04-14T05:00:54.982Z,18.29
2023-04-14T05:06:17.002Z,18.27
2023-04-14T05:11:38.944Z,18.48
2023-04-14T05:17:00.733Z,18.84
2023-04-14T05:22:22.582Z,19.20
2023-04-14T05:27:44.525Z,19.36
2023-04-14T05:33:06.693Z,19.45
2023-04-14T05:38:28.677Z,19.48
2023-04-14T05:43:51.017Z,19.50
2023-04-14T05:49:12.864Z,19.49
2023-04-14T05:54:34.684Z,19.43
2023-04-14T05:59:58.201Z,19.37
2023-04-14T06:05:20.382Z,19.29
2023-04-14T06:10:42.283Z,19.23
2023-04-14T06:16:04.273Z,19.17
2023-04-14T06:21:26.305Z,19.17
2023-04-14T06:26:48.172Z,19.16
2023-04-14T06:32:10.206Z,19.14
2023-04-14T06:37:32.567Z,19.17
2023-04-14T06:42:54.492Z,19.22
2023-04-14T06:48:16.385Z,19.25
2023-04-14T06:53:39.128Z,19.32
2023-04-14T06:59:01.086Z,19.45
2023-04-14T07:04:23.332Z,19.58
2023-04-14T07:09:45.283Z,19.72
2023-04-14T07:15:08.045Z,19.79
2023-04-14T07:20:30.585Z,19.96
2023-04-14T07:25:57.432Z,20.19
2023-04-14T07:31:19.335Z,20.30
2023-04-14T07:36:41.345Z,20.37
2023-04-14T07:42:03.283Z,20.42
2023-04-14T07:47:25.138Z,20.62
2023-04-14T07:52:46.975Z,20.95
2023-04-14T07:58:08.849Z,21.25
2023-04-14T08:03:32.459Z,21.47
2023-04-14T08:08:54.612Z,21.64
2023-04-14T08:14:16.532Z,21.72
2023-04-14T08:19:38.382Z,21.70
2023-04-14T08:25:00.233Z,21.66
2023-04-14T08:30:22.435Z,21.57
2023-04-14T08:35:44.378Z,21.49
2023-04-14T08:41:08.969Z,21.44
2023-04-14T08:46:31.677Z,21.34
2023-04-14T08:51:55.105Z,21.27
2023-04-14T08:57:19.950Z,21.21
2023-04-14T09:02:42.878Z,21.14
2023-04-14T09:08:05.061Z,21.10
2023-04-14T09:13:28.761Z,21.08
2023-04-14T09:18:52.074Z,21.13
2023-04-14T09:24:17.250Z,21.23
2023-04-14T09:29:39.681Z,21.47
2023-04-14T09:35:01.726Z,21.73
2023-04-14T09:40:32.755Z,21.95
2023-04-14T09:45:55.727Z,22.12
2023-04-14T09:51:21.320Z,22.19
2023-04-14T09:56:46.286Z,22.38
2023-04-14T10:02:09.368Z,22.52
2023-04-14T10:07:31.665Z,22.64
2023-04-14T10:12:54.351Z,22.73
2023-04-14T10:18:16.438Z,22.76
2023-04-14T10:23:39.705Z,22.76
2023-04-14T10:29:03.119Z,22.71
2023-04-14T10:34:26.193Z,22.65
2023-04-14T10:40:07.444Z,22.54
2023-04-14T10:45:29.468Z,22.46
2023-04-14T10:50:55.845Z,22.39
2023-04-14T10:56:21.859Z,22.29
2023-04-14T11:01:44.281Z,22.24
2023-04-14T11:07:09.833Z,22.22
2023-04-14T11:12:31.887Z,22.19
2023-04-14T11:17:54.617Z,22.17
2023-04-14T11:23:16.845Z,22.15
2023-04-14T11:28:41.162Z,22.13
2023-04-14T11:34:06.991Z,22.11
2023-04-14T11:39:30.223Z,22.10
2023-04-14T11:45:00.401Z,22.14
2023-04-14T11:50:22.408Z,22.10
2023-04-14T11:55:45.388Z,22.04
2023-04-14T12:01:07.355Z,22.00
2023-04-14T12:06:29.363Z,21.89
2023-04-14T12:11:55.979Z,21.91
2023-04-14T12:17:20.497Z,21.87
2023-04-14T12:22:42.393Z,21.85
2023-04-14T12:28:07.073Z,21.86
2023-04-14T12:33:29.943Z,21.93
2023-04-14T12:38:51.830Z,21.98
2023-04-14T12:44:16.057Z,22.05
2023-04-14T12:49:39.090Z,22.10
2023-04-14T12:55:01.008Z,22.12
2023-04-14T13:00:24.448Z,22.10
2023-04-14T13:05:46.466Z,22.05
2023-04-14T13:11:08.320Z,22.00
2023-04-14T13:16:30.165Z,21.94
2023-04-14T13:21:52.122Z,21.92
2023-04-14T13:27:13.930Z,21.87
2023-04-14T13:32:36.114Z,21.82
2023-04-14T13:37:58.734Z,21.78
2023-04-14T13:43:20.622Z,21.74
2023-04-14T13:48:45.494Z,21.70
2023-04-14T13:54:07.322Z,21.66
2023-04-14T13:59:29.232Z,21.65
2023-04-14T14:04:51.094Z,21.66
2023-04-14T14:10:12.946Z,21.63
2023-04-14T14:15:34.846Z,21.64
2023-04-14T14:20:56.799Z,21.62
2023-04-14T14:26:18.672Z,21.60
2023-04-14T14:31:40.648Z,21.60
2023-04-14T14:37:02.549Z,21.58
2023-04-14T14:42:24.385Z,21.58
2023-04-14T14:47:46.519Z,21.55
2023-04-14T14:53:08.336Z,21.55
2023-04-14T14:58:30.423Z,21.50
2023-04-14T15:03:54.740Z,21.47
2023-04-14T15:09:16.824Z,21.40
2023-04-14T15:14:38.684Z,21.33
2023-04-14T15:20:05.295Z,21.30
2023-04-14T15:25:27.169Z,21.27
2023-04-14T15:30:49.255Z,21.20
2023-04-14T15:36:11.509Z,21.17
2023-04-14T15:41:33.380Z,21.16
2023-04-14T15:46:55.415Z,21.15
2023-04-14T15:52:17.249Z,21.17
2023-04-14T15:57:39.125Z,21.18
2023-04-14T16:03:02.330Z,21.18
2023-04-14T16:08:24.447Z,21.17
2023-04-14T16:13:46.381Z,21.18
2023-04-14T16:19:08.578Z,21.20
2023-04-14T16:24:31.009Z,21.21
2023-04-14T16:29:53.129Z,21.21
2023-04-14T16:35:15.073Z,21.19
2023-04-14T16:40:37.675Z,21.18
2023-04-14T16:46:03.996Z,21.17
2023-04-14T16:51:27.678Z,21.12
2023-04-14T16:56:49.582Z,21.09
2023-04-14T17:02:11.571Z,21.03
2023-04-14T17:07:33.893Z,20.97
2023-04-14T17:12:55.761Z,20.94
2023-04-14T17:18:17.725Z,20.88
2023-04-14T17:23:39.636Z,20.85
2023-04-14T17:29:01.650Z,20.80
2023-04-14T17:34:24.227Z,20.76
2023-04-14T17:39:46.929Z,20.68
2023-04-14T17:45:09.381Z,20.66
2023-04-14T17:50:31.349Z,20.69
2023-04-14T17:55:53.564Z,20.75
2023-04-14T18:01:40.939Z,20.82
2023-04-14T18:07:02.913Z,20.90
2023-04-14T18:12:25.508Z,20.99
2023-04-14T18:17:47.376Z,21.08
2023-04-14T18:23:09.414Z,21.13
2023-04-14T18:28:31.794Z,21.17
2023-04-14T18:33:53.776Z,21.18
2023-04-14T18:39:16.623Z,21.17
2023-04-14T18:44:38.666Z,21.15
2023-04-14T18:50:00.646Z,21.10
2023-04-14T18:55:22.574Z,21.03
2023-04-14T19:00:47.483Z,20.98
2023-04-14T19:06:09.296Z,20.90
2023-04-14T19:11:36.110Z,20.85
2023-04-14T19:16:58.311Z,20.80
2023-04-14T19:22:20.390Z,20.76
2023-04-14T19:27:43.391Z,20.71
2023-04-14T19:33:05.455Z,20.65
2023-04-14T19:38:27.720Z,20.60
2023-04-14T19:43:49.646Z,20.60
2023-04-14T19:49:11.908Z,20.58
2023-04-14T19:54:34.147Z,20.64
2023-04-14T19:59:55.941Z,20.75
2023-04-14T20:05:18.132Z,20.88
2023-04-14T20:10:40.404Z,20.98
2023-04-14T20:16:02.371Z,21.03
2023-04-14T20:21:24.408Z,21.07
2023-04-14T20:26:46.810Z,21.08
2023-04-14T20:32:09.666Z,21.05
2023-04-14T20:37:32.313Z,21.05
2023-04-14T20:42:54.706Z,21.03
2023-04-14T20:48:16.542Z,21.01
2023-04-14T20:53:38.536Z,20.96
2023-04-14T20:59:00.493Z,20.91
2023-04-14T21:04:22.650Z,20.87
2023-04-14T21:09:45.046Z,20.84
2023-04-14T21:15:47.421Z,20.81
2023-04-14T21:20:49.319Z,20.78
2023-04-14T21:26:12.149Z,20.75
2023-04-14T21:31:34.014Z,20.74
2023-04-14T21:36:57.684Z,20.72
2023-04-14T21:42:19.457Z,20.65
2023-04-14T21:47:41.635Z,20.59
2023-04-14T21:53:04.370Z,20.53
2023-04-14T21:58:26.275Z,20.50
2023-04-14T22:03:48.308Z,20.46
2023-04-14T22:09:10.488Z,20.42
2023-04-14T22:14:32.346Z,20.38
2023-04-14T22:19:54.104Z,20.34
2023-04-14T22:25:16.997Z,20.30
2023-04-14T22:30:38.951Z,20.26
2023-04-14T22:36:03.802Z,20.22
2023-04-14T22:41:25.677Z,20.18
2023-04-14T22:46:47.490Z,20.16
2023-04-14T22:52:09.248Z,20.13
2023-04-14T22:57:31.254Z,20.10
2023-04-14T23:02:53.973Z,20.08
2023-04-14T23:08:16.027Z,20.03
2023-04-14T23:13:37.811Z,20.02
2023-04-14T23:18:59.880Z,20.01
2023-04-14T23:24:22.620Z,20.01
2023-04-14T23:29:44.460Z,20.02
2023-04-14T23:35:07.207Z,19.99
2023-04-14T23:40:31.249Z,19.98
2023-04-14T23:45:53.205Z,19.94
2023-04-14T23:51:19.208Z,19.92
2023-04-14T23:56:43.803Z,19.89
